createdAt,value
2019-03-11T00:02:23.861Z,73.69
2019-03-11T00:04:51.631Z,73.32
2019-03-11T00:07:19.416Z,73.39
2019-03-11T00:09:47.151Z,73.35
2019-03-11T00:12:14.923Z,73.50
2019-03-11T00:14:42.673Z,73.11
2019-03-11T00:17:10.457Z,73.28
2019-03-11T00:19:38.212Z,73.20
2019-03-11T00:22:05.984Z,72.80
2019-03-11T00:24:33.694Z,73.49
2019-03-11T00:27:01.453Z,73.50
2019-03-11T00:29:29.201Z,74.34
2019-03-11T00:31:57.041Z,74.54
2019-03-11T00:34:24.753Z,75.13
2019-03-11T00:36:52.567Z,75.63
2019-03-11T00:39:20.317Z,74.51
2019-03-11T00:41:48.113Z,73.86
2019-03-11T00:44:15.867Z,74.53
2019-03-11T00:46:43.640Z,74.01
2019-03-11T00:49:11.370Z,74.06
2019-03-11T00:51:39.139Z,73.23
2019-03-11T00:54:06.921Z,74.04
2019-03-11T00:56:34.692Z,74.85
2019-03-11T00:59:02.411Z,74.73
2019-03-11T01:01:30.299Z,75.20
2019-03-11T01:03:58.026Z,75.42
2019-03-11T01:06:25.814Z,75.60
2019-03-11T01:08:53.592Z,76.49
2019-03-11T01:11:21.358Z,75.97
2019-03-11T01:13:49.171Z,75.09
2019-03-11T01:16:16.922Z,74.18
2019-03-11T01:18:44.677Z,73.84
2019-03-11T01:21:12.463Z,73.42
2019-03-11T01:23:40.244Z,73.34
2019-03-11T01:26:07.978Z,73.58
2019-03-11T01:28:35.734Z,73.13
2019-03-11T01:31:03.469Z,71.99
2019-03-11T01:33:31.254Z,71.22
2019-03-11T01:35:59.006Z,71.32
2019-03-11T01:38:26.782Z,71.24
2019-03-11T01:40:54.655Z,71.17
2019-03-11T01:43:22.421Z,70.98
2019-03-11T01:45:50.185Z,71.46
2019-03-11T01:48:17.938Z,71.43
2019-03-11T01:50:45.757Z,70.71
2019-03-11T01:53:13.507Z,69.86
2019-03-11T01:55:41.251Z,69.57
2019-03-11T01:58:09.052Z,69.01
2019-03-11T02:00:36.803Z,69.25
2019-03-11T02:03:04.549Z,69.49
2019-03-11T02:05:32.308Z,69.16
2019-03-11T02:08:00.096Z,68.81
2019-03-11T02:10:28.017Z,68.97
2019-03-11T02:12:55.796Z,69.97
2019-03-11T02:15:23.556Z,69.99
2019-03-11T02:17:51.324Z,69.67
2019-03-11T02:20:19.195Z,70.47
2019-03-11T02:22:46.954Z,69.54
2019-03-11T02:25:14.865Z,69.51
2019-03-11T02:27:42.637Z,69.48
2019-03-11T02:30:11.551Z,69.81
2019-03-11T02:32:39.318Z,69.97
2019-03-11T02:35:07.410Z,69.45
2019-03-11T02:37:35.217Z,69.28
2019-03-11T02:40:03.673Z,69.74
2019-03-11T02:42:31.487Z,69.50
2019-03-11T02:44:59.266Z,69.92
2019-03-11T02:47:27.019Z,69.62
2019-03-11T02:49:54.826Z,69.72
2019-03-11T02:52:22.572Z,69.92
2019-03-11T02:54:50.325Z,69.60
2019-03-11T02:57:18.063Z,70.32
2019-03-11T02:59:45.812Z,70.30
2019-03-11T03:02:24.819Z,69.98
2019-03-11T03:05:02.030Z,69.95
2019-03-11T03:07:29.768Z,69.85
2019-03-11T03:09:57.553Z,70.42
2019-03-11T03:12:25.303Z,70.06
2019-03-11T03:14:53.183Z,69.33
2019-03-11T03:17:22.003Z,68.86
2019-03-11T03:19:50.042Z,69.91
2019-03-11T03:22:17.808Z,70.94
2019-03-11T03:24:45.576Z,70.20
2019-03-11T03:27:13.310Z,70.07
2019-03-11T03:29:41.089Z,70.13
2019-03-11T03:32:08.848Z,70.48
2019-03-11T03:34:36.713Z,69.86
2019-03-11T03:37:04.410Z,69.40
2019-03-11T03:39:32.170Z,69.50
2019-03-11T03:41:59.915Z,69.39
2019-03-11T03:44:27.733Z,70.35
2019-03-11T03:46:55.464Z,70.21
2019-03-11T03:49:23.284Z,70.16
2019-03-11T03:51:51.006Z,70.02
2019-03-11T03:54:18.752Z,69.74
2019-03-11T03:56:46.527Z,69.42
2019-03-11T03:59:14.280Z,69.78
2019-03-11T04:01:42.050Z,69.37
2019-03-11T04:04:09.796Z,68.92
2019-03-11T04:06:37.552Z,69.07
2019-03-11T04:09:05.491Z,68.72
2019-03-11T04:11:33.257Z,69.64
2019-03-11T04:14:00.979Z,68.96
2019-03-11T04:16:28.752Z,68.90
2019-03-11T04:18:56.866Z,68.92
2019-03-11T04:21:24.819Z,69.57
2019-03-11T04:23:52.595Z,68.97
2019-03-11T04:26:22.258Z,68.75
2019-03-11T04:28:50.207Z,68.03
2019-03-11T04:31:17.977Z,68.01
2019-03-11T04:33:45.721Z,67.61
2019-03-11T04:36:13.472Z,67.88
2019-03-11T04:38:41.211Z,68.32
2019-03-11T04:41:09.015Z,68.08
2019-03-11T04:43:36.837Z,67.87
2019-03-11T04:46:04.685Z,67.75
2019-03-11T04:48:32.487Z,67.98
2019-03-11T04:51:00.264Z,67.69
2019-03-11T04:53:27.988Z,67.56
2019-03-11T04:55:55.757Z,67.62
2019-03-11T04:58:23.548Z,67.20
2019-03-11T05:00:51.290Z,67.64
2019-03-11T05:03:19.061Z,67.56
2019-03-11T05:05:46.810Z,67.95
2019-03-11T05:08:14.611Z,67.64
2019-03-11T05:10:42.333Z,67.98
2019-03-11T05:13:10.088Z,67.84
2019-03-11T05:15:37.829Z,67.60
2019-03-11T05:18:05.623Z,67.27
2019-03-11T05:20:33.325Z,67.12
2019-03-11T05:23:01.122Z,67.69
2019-03-11T05:25:28.937Z,67.67
2019-03-11T05:27:56.762Z,68.19
2019-03-11T05:30:24.520Z,67.49
2019-03-11T05:32:52.380Z,67.57
2019-03-11T05:35:20.116Z,68.01
2019-03-11T05:37:47.945Z,68.19
2019-03-11T05:40:15.717Z,67.76
2019-03-11T05:42:43.730Z,67.56
2019-03-11T05:45:12.065Z,67.65
2019-03-11T05:47:39.873Z,67.09
2019-03-11T05:50:09.710Z,67.34
2019-03-11T05:52:37.496Z,67.61
2019-03-11T05:55:05.523Z,68.09
2019-03-11T05:57:34.559Z,67.85
2019-03-11T06:00:02.341Z,67.69
2019-03-11T06:02:30.123Z,67.50
2019-03-11T06:04:57.871Z,67.42
2019-03-11T06:07:25.689Z,67.68
2019-03-11T06:09:53.455Z,67.93
2019-03-11T06:12:21.205Z,68.64
2019-03-11T06:14:49.015Z,66.56
2019-03-11T06:17:16.807Z,65.20
2019-03-11T06:19:44.888Z,64.90
2019-03-11T06:22:18.928Z,64.68
2019-03-11T06:24:46.709Z,64.78
2019-03-11T06:27:14.445Z,64.43
2019-03-11T06:29:42.231Z,63.76
2019-03-11T06:32:09.983Z,64.13
2019-03-11T06:34:37.777Z,64.46
2019-03-11T06:37:05.538Z,64.83
2019-03-11T06:39:33.699Z,65.75
2019-03-11T06:42:01.429Z,67.18
2019-03-11T06:44:29.188Z,67.73
2019-03-11T06:46:57.727Z,68.11
2019-03-11T06:49:25.523Z,68.50
2019-03-11T06:51:53.326Z,68.51
2019-03-11T06:54:21.166Z,67.12
2019-03-11T06:56:48.913Z,67.64
2019-03-11T06:59:16.810Z,68.08
2019-03-11T07:01:44.577Z,67.82
2019-03-11T07:04:12.336Z,68.42
2019-03-11T07:06:40.100Z,68.63
2019-03-11T07:09:08.539Z,69.13
2019-03-11T07:11:36.336Z,69.67
2019-03-11T07:14:04.133Z,68.74
2019-03-11T07:16:31.948Z,69.14
2019-03-11T07:18:59.856Z,68.37
2019-03-11T07:21:27.592Z,67.61
2019-03-11T07:23:55.371Z,67.77
2019-03-11T07:26:23.154Z,67.88
2019-03-11T07:28:50.899Z,66.89
2019-03-11T07:31:18.676Z,66.83
2019-03-11T07:33:46.449Z,66.78
2019-03-11T07:36:14.222Z,67.03
2019-03-11T07:38:41.997Z,66.86
2019-03-11T07:41:09.796Z,66.74
2019-03-11T07:43:37.563Z,66.80
2019-03-11T07:46:05.390Z,66.99
2019-03-11T07:48:33.263Z,66.91
2019-03-11T07:51:01.037Z,65.99
2019-03-11T07:53:28.783Z,64.84
2019-03-11T07:55:56.592Z,63.78
2019-03-11T07:58:24.314Z,62.66
2019-03-11T08:00:54.219Z,63.07
2019-03-11T08:03:21.757Z,63.79
2019-03-11T08:05:49.525Z,62.63
2019-03-11T08:08:17.293Z,61.29
2019-03-11T08:10:45.087Z,60.91
2019-03-11T08:13:12.800Z,62.03
2019-03-11T08:15:40.600Z,62.33
2019-03-11T08:18:10.991Z,61.82
2019-03-11T08:20:38.831Z,60.77
2019-03-11T08:23:06.616Z,58.54
2019-03-11T08:25:34.362Z,58.42
2019-03-11T08:28:02.203Z,58.43
2019-03-11T08:30:30.049Z,57.20
2019-03-11T08:32:57.798Z,57.24
2019-03-11T08:35:25.613Z,56.75
2019-03-11T08:37:53.758Z,57.07
2019-03-11T08:40:21.609Z,57.61
2019-03-11T08:42:49.447Z,55.54
2019-03-11T08:45:17.902Z,55.73
2019-03-11T08:47:46.308Z,56.16
2019-03-11T08:50:14.221Z,56.16
2019-03-11T08:52:41.986Z,56.20
2019-03-11T08:55:09.999Z,56.79
2019-03-11T08:57:40.088Z,56.78
2019-03-11T09:00:08.514Z,56.97
2019-03-11T09:02:36.303Z,57.39
2019-03-11T09:05:05.680Z,57.82
2019-03-11T09:07:33.442Z,58.36
2019-03-11T09:10:01.249Z,57.70
2019-03-11T09:12:29.028Z,57.68
2019-03-11T09:14:56.782Z,56.32
2019-03-11T09:17:24.538Z,57.18
2019-03-11T09:19:52.356Z,55.98
2019-03-11T09:22:20.295Z,56.86
2019-03-11T09:24:48.053Z,56.52
2019-03-11T09:27:16.039Z,55.66
2019-03-11T09:29:43.809Z,54.88
2019-03-11T09:32:11.611Z,53.94
2019-03-11T09:34:39.331Z,52.52
2019-03-11T09:37:07.123Z,51.83
2019-03-11T09:39:34.893Z,51.71
2019-03-11T09:42:02.639Z,50.21
2019-03-11T09:44:30.386Z,49.23
2019-03-11T09:46:58.131Z,50.41
2019-03-11T09:49:25.932Z,51.49
2019-03-11T09:51:53.677Z,52.50
2019-03-11T09:54:21.453Z,53.69
2019-03-11T09:56:49.197Z,53.92
2019-03-11T09:59:16.977Z,53.54
2019-03-11T10:01:44.727Z,53.43
2019-03-11T10:04:12.485Z,54.18
2019-03-11T10:06:40.254Z,53.61
2019-03-11T10:09:08.024Z,53.60
2019-03-11T10:11:35.783Z,53.62
2019-03-11T10:14:03.564Z,51.95
2019-03-11T10:16:31.702Z,49.81
2019-03-11T10:18:59.743Z,48.62
2019-03-11T10:21:27.515Z,44.46
2019-03-11T10:23:55.265Z,41.67
2019-03-11T10:26:23.062Z,42.01
2019-03-11T10:28:50.855Z,43.97
2019-03-11T10:31:18.588Z,45.69
2019-03-11T10:33:46.364Z,47.74
2019-03-11T10:36:14.135Z,49.52
2019-03-11T10:38:41.949Z,51.21
2019-03-11T10:41:09.687Z,52.19
2019-03-11T10:43:37.452Z,52.65
2019-03-11T10:46:05.193Z,51.61
2019-03-11T10:48:37.289Z,52.17
2019-03-11T10:51:02.760Z,52.44
2019-03-11T10:53:30.604Z,51.95
2019-03-11T10:55:59.977Z,51.88
2019-03-11T10:58:29.202Z,51.38
2019-03-11T11:00:57.158Z,50.59
2019-03-11T11:03:24.916Z,49.64
2019-03-11T11:05:52.704Z,48.33
2019-03-11T11:08:20.470Z,45.10
2019-03-11T11:10:48.270Z,40.78
2019-03-11T11:13:15.996Z,40.57
2019-03-11T11:15:43.773Z,41.96
2019-03-11T11:18:11.526Z,43.28
2019-03-11T11:20:39.310Z,43.22
2019-03-11T11:23:07.351Z,43.97
2019-03-11T11:25:35.478Z,44.72
2019-03-11T11:28:03.472Z,44.01
2019-03-11T11:30:31.542Z,44.73
2019-03-11T11:32:59.270Z,45.43
2019-03-11T11:35:27.078Z,46.56
2019-03-11T11:37:55.176Z,46.35
2019-03-11T11:40:23.228Z,46.76
2019-03-11T11:42:51.140Z,47.21
2019-03-11T11:45:19.498Z,47.91
2019-03-11T11:47:47.371Z,49.61
2019-03-11T11:50:16.867Z,49.95
2019-03-11T11:52:44.734Z,49.63
2019-03-11T11:55:13.245Z,45.66
2019-03-11T11:57:41.017Z,44.53
2019-03-11T12:00:19.727Z,44.53
2019-03-11T12:02:47.453Z,43.22
2019-03-11T12:05:15.488Z,43.46
2019-03-11T12:07:43.247Z,43.72
2019-03-11T12:10:13.353Z,44.03
2019-03-11T12:12:41.167Z,44.30
2019-03-11T12:15:09.194Z,43.89
2019-03-11T12:17:37.033Z,42.27
2019-03-11T12:20:06.241Z,41.96
2019-03-11T12:22:33.992Z,39.45
2019-03-11T12:25:01.778Z,37.29
2019-03-11T12:27:29.547Z,37.70
2019-03-11T12:29:57.337Z,39.82
2019-03-11T12:32:25.972Z,40.88
2019-03-11T12:34:53.736Z,44.10
2019-03-11T12:37:21.628Z,48.01
2019-03-11T12:39:49.385Z,50.14
2019-03-11T12:42:17.141Z,50.51
2019-03-11T12:44:44.891Z,50.91
2019-03-11T12:47:13.007Z,50.80
2019-03-11T12:49:40.742Z,50.33
2019-03-11T12:52:08.512Z,49.88
2019-03-11T12:54:36.517Z,50.62
2019-03-11T12:57:04.249Z,51.31
2019-03-11T12:59:40.287Z,52.25
2019-03-11T13:02:02.938Z,52.49
2019-03-11T13:04:30.714Z,52.18
2019-03-11T13:06:58.491Z,52.18
2019-03-11T13:09:26.298Z,48.97
2019-03-11T13:11:54.068Z,45.00
2019-03-11T13:14:21.808Z,43.86
2019-03-11T13:16:49.605Z,43.90
2019-03-11T13:19:17.343Z,45.39
2019-03-11T13:21:45.780Z,47.25
2019-03-11T13:24:13.559Z,49.38
2019-03-11T13:26:41.321Z,50.47
2019-03-11T13:29:09.087Z,48.00
2019-03-11T13:31:36.822Z,46.24
2019-03-11T13:34:04.611Z,46.05
2019-03-11T13:36:32.370Z,48.39
2019-03-11T13:39:00.225Z,49.83
2019-03-11T13:41:28.128Z,51.13
2019-03-11T13:43:55.889Z,51.77
2019-03-11T13:46:23.626Z,53.08
2019-03-11T13:48:51.403Z,54.21
2019-03-11T13:51:19.159Z,52.66
2019-03-11T13:53:46.969Z,50.41
2019-03-11T13:56:14.718Z,50.94
2019-03-11T13:58:42.473Z,52.62
2019-03-11T14:01:10.227Z,53.10
2019-03-11T14:03:37.990Z,53.31
2019-03-11T14:06:05.739Z,54.63
2019-03-11T14:08:33.507Z,55.21
2019-03-11T14:11:01.267Z,54.22
2019-03-11T14:13:28.989Z,54.34
2019-03-11T14:15:57.121Z,55.29
2019-03-11T14:18:25.011Z,54.51
2019-03-11T14:20:53.966Z,54.68
2019-03-11T14:23:21.757Z,53.84
2019-03-11T14:25:49.543Z,50.19
2019-03-11T14:28:17.317Z,49.76
2019-03-11T14:30:45.111Z,47.29
2019-03-11T14:33:13.146Z,44.61
2019-03-11T14:35:40.891Z,47.23
2019-03-11T14:38:08.639Z,49.02
2019-03-11T14:40:36.417Z,48.45
2019-03-11T14:43:04.143Z,48.38
2019-03-11T14:45:31.916Z,49.38
2019-03-11T14:47:59.795Z,50.03
2019-03-11T14:50:27.572Z,50.60
2019-03-11T14:52:55.422Z,51.90
2019-03-11T14:55:23.158Z,52.43
2019-03-11T14:57:50.952Z,53.28
2019-03-11T15:00:19.042Z,49.56
2019-03-11T15:02:47.107Z,45.20
2019-03-11T15:05:16.056Z,43.89
2019-03-11T15:07:43.903Z,42.60
2019-03-11T15:10:11.804Z,40.82
2019-03-11T15:12:39.582Z,40.24
2019-03-11T15:15:11.274Z,41.87
2019-03-11T15:17:39.032Z,43.92
2019-03-11T15:20:07.039Z,46.26
2019-03-11T15:22:34.810Z,50.18
2019-03-11T15:25:02.798Z,52.04
2019-03-11T15:27:30.764Z,53.26
2019-03-11T15:29:58.552Z,53.50
2019-03-11T15:32:26.430Z,53.86
2019-03-11T15:34:54.194Z,53.91
2019-03-11T15:37:22.633Z,54.32
2019-03-11T15:39:50.501Z,54.75
2019-03-11T15:42:18.288Z,54.84
2019-03-11T15:44:46.057Z,55.31
2019-03-11T15:47:13.814Z,55.85
2019-03-11T15:49:41.573Z,55.66
2019-03-11T15:52:09.328Z,56.09
2019-03-11T15:54:37.107Z,56.03
2019-03-11T15:57:04.856Z,56.60
2019-03-11T15:59:32.680Z,56.13
2019-03-11T16:02:00.482Z,56.60
2019-03-11T16:04:28.254Z,57.40
2019-03-11T16:06:56.007Z,57.25
2019-03-11T16:09:23.832Z,57.78
2019-03-11T16:11:51.596Z,58.12
2019-03-11T16:14:19.387Z,58.91
2019-03-11T16:16:47.172Z,58.90
2019-03-11T16:19:14.897Z,59.92
2019-03-11T16:21:42.648Z,61.00
2019-03-11T16:24:10.446Z,61.47
2019-03-11T16:26:38.171Z,62.11
2019-03-11T16:29:05.954Z,62.02
2019-03-11T16:31:33.723Z,63.61
2019-03-11T16:34:01.507Z,64.11
2019-03-11T16:36:29.270Z,64.59
2019-03-11T16:38:57.029Z,67.22
2019-03-11T16:41:24.815Z,69.12
2019-03-11T16:43:52.576Z,69.83
2019-03-11T16:46:20.333Z,70.35
2019-03-11T16:48:48.112Z,70.94
2019-03-11T16:51:15.887Z,70.95
2019-03-11T16:53:43.715Z,71.41
2019-03-11T16:56:11.459Z,72.91
2019-03-11T16:58:39.270Z,74.60
2019-03-11T17:01:09.258Z,75.07
2019-03-11T17:03:37.066Z,75.62
2019-03-11T17:06:04.859Z,76.43
2019-03-11T17:08:32.638Z,76.10
2019-03-11T17:11:00.450Z,75.66
2019-03-11T17:13:28.219Z,75.49
2019-03-11T17:15:56.006Z,75.44
2019-03-11T17:18:24.046Z,76.28
2019-03-11T17:20:51.822Z,76.23
2019-03-11T17:23:19.618Z,75.58
2019-03-11T17:25:47.449Z,74.65
2019-03-11T17:28:15.308Z,74.10
2019-03-11T17:30:43.176Z,74.47
2019-03-11T17:33:10.938Z,74.27
2019-03-11T17:35:38.696Z,74.44
2019-03-11T17:38:06.453Z,74.78
2019-03-11T17:40:34.263Z,75.59
2019-03-11T17:43:02.096Z,75.37
2019-03-11T17:45:29.967Z,76.71
2019-03-11T17:47:57.733Z,76.68
2019-03-11T17:50:25.517Z,75.86
2019-03-11T17:52:53.303Z,76.02
2019-03-11T17:55:21.181Z,76.20
2019-03-11T17:57:49.854Z,77.24
2019-03-11T18:00:21.182Z,77.72
2019-03-11T18:02:48.906Z,76.69
2019-03-11T18:05:16.795Z,77.45
2019-03-11T18:07:44.591Z,77.53
2019-03-11T18:10:12.486Z,78.32
2019-03-11T18:12:40.260Z,78.18
2019-03-11T18:15:12.686Z,78.61
2019-03-11T18:17:38.089Z,79.10
2019-03-11T18:20:06.325Z,79.62
2019-03-11T18:22:34.199Z,79.76
2019-03-11T18:25:01.968Z,79.83
2019-03-11T18:27:29.793Z,79.86
2019-03-11T18:29:57.645Z,80.38
2019-03-11T18:32:25.487Z,80.07
2019-03-11T18:34:53.243Z,79.33
2019-03-11T18:37:21.046Z,79.40
2019-03-11T18:39:48.835Z,80.15
2019-03-11T18:42:24.937Z,79.62
2019-03-11T18:44:46.385Z,79.18
2019-03-11T18:47:14.261Z,79.50
2019-03-11T18:49:42.129Z,80.14
2019-03-11T18:52:10.008Z,79.54
2019-03-11T18:54:37.759Z,79.96
2019-03-11T18:57:05.567Z,79.38
2019-03-11T18:59:33.443Z,78.90
2019-03-11T19:02:01.277Z,78.47
2019-03-11T19:04:29.018Z,79.06
2019-03-11T19:06:56.836Z,79.40
2019-03-11T19:09:24.945Z,78.47
2019-03-11T19:11:52.758Z,79.05
2019-03-11T19:14:20.681Z,77.92
2019-03-11T19:16:48.577Z,77.53
2019-03-11T19:19:17.152Z,78.75
2019-03-11T19:21:45.003Z,78.44
2019-03-11T19:24:13.208Z,78.12
2019-03-11T19:26:41.007Z,78.74
2019-03-11T19:29:08.820Z,78.72
2019-03-11T19:31:36.674Z,77.59
2019-03-11T19:34:04.493Z,78.23
2019-03-11T19:36:33.548Z,78.50
2019-03-11T19:39:01.874Z,78.67
2019-03-11T19:41:29.789Z,80.10
2019-03-11T19:43:57.677Z,79.77
2019-03-11T19:46:25.491Z,78.77
2019-03-11T19:48:53.391Z,80.00
2019-03-11T19:51:21.292Z,80.30
2019-03-11T19:53:49.180Z,80.25
2019-03-11T19:56:17.072Z,80.68
2019-03-11T19:58:45.038Z,80.43
2019-03-11T20:01:12.883Z,80.04
2019-03-11T20:03:40.741Z,80.84
2019-03-11T20:06:08.654Z,81.05
2019-03-11T20:08:36.488Z,79.81
2019-03-11T20:11:04.290Z,80.53
2019-03-11T20:13:32.254Z,80.14
2019-03-11T20:16:00.333Z,80.43
2019-03-11T20:18:28.153Z,81.01
2019-03-11T20:20:55.977Z,81.75
2019-03-11T20:23:23.946Z,80.55
2019-03-11T20:25:51.827Z,80.71
2019-03-11T20:28:19.760Z,81.29
2019-03-11T20:30:47.716Z,80.46
2019-03-11T20:33:15.597Z,80.94
2019-03-11T20:35:43.490Z,80.79
2019-03-11T20:38:11.405Z,82.16
2019-03-11T20:40:40.153Z,82.58
2019-03-11T20:43:08.083Z,82.92
2019-03-11T20:45:36.005Z,82.32
2019-03-11T20:48:03.752Z,82.14
2019-03-11T20:50:41.560Z,82.68
2019-03-11T20:53:01.203Z,83.15
2019-03-11T20:55:29.064Z,82.78
2019-03-11T20:57:56.888Z,82.52
2019-03-11T21:00:24.756Z,81.94
2019-03-11T21:02:52.778Z,81.63
2019-03-11T21:05:24.168Z,81.69
2019-03-11T21:07:51.910Z,82.15
2019-03-11T21:10:19.713Z,82.33
2019-03-11T21:12:47.593Z,82.29
2019-03-11T21:15:15.433Z,82.49
2019-03-11T21:17:43.237Z,82.27
2019-03-11T21:20:13.712Z,82.30
2019-03-11T21:22:41.770Z,82.32
2019-03-11T21:25:12.118Z,81.91
2019-03-11T21:27:39.967Z,82.57
2019-03-11T21:30:11.374Z,82.46
2019-03-11T21:32:39.182Z,81.66
2019-03-11T21:35:07.664Z,81.92
2019-03-11T21:37:35.616Z,82.61
2019-03-11T21:40:03.950Z,82.79
2019-03-11T21:42:31.748Z,82.97
2019-03-11T21:44:59.557Z,81.90
2019-03-11T21:47:27.353Z,81.71
2019-03-11T21:49:55.274Z,81.92
2019-03-11T21:52:23.070Z,81.42
2019-03-11T21:54:51.011Z,82.20
2019-03-11T21:57:18.866Z,82.86
2019-03-11T21:59:46.893Z,82.56
2019-03-11T22:02:14.857Z,82.13
2019-03-11T22:04:42.600Z,82.60
2019-03-11T22:07:10.402Z,82.18
2019-03-11T22:09:38.206Z,82.77
2019-03-11T22:12:05.975Z,83.80
2019-03-11T22:14:33.760Z,84.77
2019-03-11T22:17:01.548Z,85.26
2019-03-11T22:19:29.293Z,85.83
2019-03-11T22:21:57.067Z,85.84
2019-03-11T22:24:24.825Z,86.17
2019-03-11T22:26:52.611Z,86.78
2019-03-11T22:29:20.393Z,87.28
2019-03-11T22:31:48.259Z,87.19
2019-03-11T22:34:16.050Z,87.30
2019-03-11T22:36:43.938Z,87.74
2019-03-11T22:39:11.683Z,86.71
2019-03-11T22:41:39.548Z,86.33
2019-03-11T22:44:07.265Z,86.10
2019-03-11T22:46:35.055Z,85.70
2019-03-11T22:49:02.783Z,84.89
2019-03-11T22:51:30.546Z,85.06
2019-03-11T22:53:58.333Z,85.03
2019-03-11T22:56:26.106Z,84.73
2019-03-11T22:58:53.860Z,84.76
2019-03-11T23:01:21.835Z,83.85
2019-03-11T23:03:50.829Z,83.64
2019-03-11T23:06:18.807Z,83.45
2019-03-11T23:08:46.569Z,83.79
2019-03-11T23:11:14.325Z,84.00
2019-03-11T23:13:42.115Z,84.03
2019-03-11T23:16:09.861Z,84.10
2019-03-11T23:18:37.680Z,84.07
2019-03-11T23:21:05.434Z,84.17
2019-03-11T23:23:33.231Z,83.97
2019-03-11T23:26:01.003Z,83.78
2019-03-11T23:28:28.799Z,83.62
2019-03-11T23:30:56.540Z,84.02
2019-03-11T23:33:24.320Z,84.04
2019-03-11T23:35:52.052Z,83.67
2019-03-11T23:38:19.844Z,83.36
2019-03-11T23:40:47.610Z,82.80
2019-03-11T23:43:15.390Z,82.71
2019-03-11T23:45:43.143Z,82.50
2019-03-11T23:48:10.910Z,82.67
2019-03-11T23:50:38.650Z,82.39
2019-03-11T23:53:06.440Z,80.86
2019-03-11T23:55:34.198Z,80.83
2019-03-11T23:58:01.960Z,81.08
